メインページ
METAR-TAF:

METAR-TAF

空港 :

ダーウィン国際空港

ダーウィン, オーストラリア

緯度: 12-24S, 経度: 130-52E, 海抜: 31m

現時点の気象観測

当レポートは16分前の10:00(UTC)に作成
西/北西の風 3kt
気温 26°C
湿度 70%
気圧 1012 hPa
視程10km以上
1,500メートル以下は雲なし、積乱雲なし

METAR: YPDN 181000Z 29003KT CAVOK 26/20 Q1012 NOSIG RMK USE TAF FOR ARRIVALS AFTER 1230Z

時間: 19:46 (10:16 UTC)

予報

当レポートは4時間53分前の05:23(UTC)に作成
予報は18日の 06時(UTC)から 19日の 12時(UTC)まで有効
北/北西の風 10kt
視程10km以上
高度4000ftの雲はほとんどない
18日の 1500時(UTC)から
東/南東の風 7kt
視程10km以上
高度1500ftの雲はほとんどない
19日の 0000時(UTC)から
の風 12kt
視程10km以上
1,500メートル以下は雲なし、積乱雲なし
19日の 1000時(UTC)から
の風 5kt
視程10km以上
1,500メートル以下は雲なし、積乱雲なし

TAF: YPDN 180523Z 1806/1912 34010KT 9999 FEW040 FM181500 12007KT 9999 FEW015 FM190000 09012KT CAVOK FM191000 08005KT CAVOK

4,000以上の空港の気象観測と天気予報(METAR報とTAF報)

利用可能な観測所は地図上に黄色い丸と赤い丸で示す。

丸の上にカーソルを重ねると観測所名を参照できる。

次にクリックすると気象観測と天気予報を参照できる。

マップの切り替え:黒色「×」印の緑ボタンをクリックして拡大、「-」印の緑ボタンをクリックして縮小、緑色の三角印をクリックして隣りの地図に切り替え


METAR-TAF: